Time,TemperatureF,DewpointF,PressureIn,WindDirection,WindDirectionDegrees,WindSpeedMPH,WindSpeedGustMPH,Humidity,HourlyPrecipIn,Conditions,Clouds,dailyrainin,SoftwareType,DateUTC
2013-02-05 00:06:00,39.4,18.8,29.90,WNW,292,4.3,-999.0,43,-99.99,,,0.00,Acu-Link.com,2013-02-05 07:06:00,
2013-02-05 00:21:00,38.5,18.5,29.90,WNW,292,4.3,-999.0,44,-99.99,,,0.00,Acu-Link.com,2013-02-05 07:21:00,
2013-02-05 00:36:00,37.8,18.9,29.90,WNW,292,2.2,-999.0,46,-99.99,,,0.00,Acu-Link.com,2013-02-05 07:36:00,
2013-02-05 00:51:00,37.4,19.0,29.90,NW,315,5.1,-999.0,47,-99.99,,,0.00,Acu-Link.com,2013-02-05 07:51:00,
2013-02-05 01:07:00,37.8,19.4,29.91,WNW,292,4.3,-999.0,47,-99.99,,,0.00,Acu-Link.com,2013-02-05 08:07:00,
2013-02-05 01:22:00,37.9,20.0,29.90,North,0,3.1,-999.0,48,-99.99,,,0.00,Acu-Link.com,2013-02-05 08:22:00,
2013-02-05 01:37:00,36.9,19.0,29.90,NNE,22,5.8,-999.0,48,-99.99,,,0.00,Acu-Link.com,2013-02-05 08:37:00,
2013-02-05 01:52:00,36.3,19.0,29.91,NE,45,2.2,-999.0,49,-99.99,,,0.00,Acu-Link.com,2013-02-05 08:52:00,
2013-02-05 02:08:00,35.6,19.3,29.90,NNW,337,3.1,-999.0,51,-99.99,,,0.00,Acu-Link.com,2013-02-05 09:08:00,
2013-02-05 02:23:00,34.9,19.1,29.90,NNE,22,1.6,-999.0,52,-99.99,,,0.00,Acu-Link.com,2013-02-05 09:23:00,
2013-02-05 02:38:00,34.0,19.1,29.90,West,270,3.1,-999.0,54,-99.99,,,0.00,Acu-Link.com,2013-02-05 09:38:00,
2013-02-05 02:53:00,34.7,19.8,29.89,ESE,112,0.0,-999.0,54,-99.99,,,0.00,Acu-Link.com,2013-02-05 09:53:00,
2013-02-05 03:08:00,33.3,19.7,29.90,WSW,247,4.3,-999.0,57,-99.99,,,0.00,Acu-Link.com,2013-02-05 10:08:00,
2013-02-05 03:24:00,34.0,20.0,29.89,South,180,2.7,-999.0,56,-99.99,,,0.00,Acu-Link.com,2013-02-05 10:24:00,
2013-02-05 03:39:00,32.4,18.4,29.89,SE,135,3.1,-999.0,56,-99.99,,,0.00,Acu-Link.com,2013-02-05 10:39:00,
2013-02-05 03:54:00,32.5,19.4,29.90,ESE,112,2.2,-999.0,58,-99.99,,,0.00,Acu-Link.com,2013-02-05 10:54:00,
2013-02-05 04:09:00,31.5,19.2,29.90,South,180,0.0,-999.0,60,-99.99,,,0.00,Acu-Link.com,2013-02-05 11:09:00,
2013-02-05 04:24:00,31.3,20.2,29.90,East,90,1.1,-999.0,63,-99.99,,,0.00,Acu-Link.com,2013-02-05 11:24:00,
2013-02-05 04:40:00,30.9,19.1,29.91,SSW,202,1.6,-999.0,61,-99.99,,,0.00,Acu-Link.com,2013-02-05 11:40:00,
2013-02-05 04:55:00,30.2,19.5,29.91,WNW,292,2.2,-999.0,64,-99.99,,,0.00,Acu-Link.com,2013-02-05 11:55:00,
2013-02-05 05:10:00,30.2,19.5,29.91,SSE,157,2.2,-999.0,64,-99.99,,,0.00,Acu-Link.com,2013-02-05 12:10:00,
2013-02-05 05:25:00,29.7,19.7,29.91,WNW,292,2.7,-999.0,66,-99.99,,,0.00,Acu-Link.com,2013-02-05 12:25:00,
2013-02-05 05:40:00,32.9,22.1,29.91,NW,315,1.1,-999.0,64,-99.99,,,0.00,Acu-Link.com,2013-02-05 12:40:00,
2013-02-05 05:56:00,30.7,20.0,29.91,SSE,157,2.7,-999.0,64,-99.99,,,0.00,Acu-Link.com,2013-02-05 12:56:00,
2013-02-05 06:11:00,29.7,19.7,29.91,ESE,112,1.6,-999.0,66,-99.99,,,0.00,Acu-Link.com,2013-02-05 13:11:00,
2013-02-05 06:26:00,29.7,20.1,29.92,SSE,157,1.6,-999.0,67,-99.99,,,0.00,Acu-Link.com,2013-02-05 13:26:00,
2013-02-05 06:41:00,28.8,19.9,29.92,WNW,292,2.2,-999.0,69,-99.99,,,0.00,Acu-Link.com,2013-02-05 13:41:00,
2013-02-05 06:57:00,30.0,21.4,29.92,West,270,4.3,-999.0,70,-99.99,,,0.00,Acu-Link.com,2013-02-05 13:57:00,
2013-02-05 07:12:00,32.4,23.0,29.92,NNW,337,3.1,-999.0,68,-99.99,,,0.00,Acu-Link.com,2013-02-05 14:12:00,
2013-02-05 07:27:00,30.6,20.6,29.93,WSW,247,1.6,-999.0,66,-99.99,,,0.00,Acu-Link.com,2013-02-05 14:27:00,
2013-02-05 07:42:00,33.3,22.0,29.94,East,90,2.7,-999.0,63,-99.99,,,0.00,Acu-Link.com,2013-02-05 14:42:00,
2013-02-05 07:57:00,33.3,20.9,29.94,ESE,112,2.7,-999.0,60,-99.99,,,0.00,Acu-Link.com,2013-02-05 14:57:00,
2013-02-05 08:13:00,37.9,24.1,29.94,NE,45,4.3,-999.0,57,-99.99,,,0.00,Acu-Link.com,2013-02-05 15:13:00,
2013-02-05 08:28:00,40.5,26.0,29.95,NNW,337,5.8,-999.0,56,-99.99,,,0.00,Acu-Link.com,2013-02-05 15:28:00,
2013-02-05 08:43:00,42.1,26.2,29.94,NE,45,4.7,-999.0,53,-99.99,,,0.00,Acu-Link.com,2013-02-05 15:43:00,
2013-02-05 08:58:00,42.8,26.4,29.94,South,180,3.1,-999.0,52,-99.99,,,0.00,Acu-Link.com,2013-02-05 15:58:00,
2013-02-05 09:13:00,43.5,25.6,29.95,NNE,22,5.1,-999.0,49,-99.99,,,0.00,Acu-Link.com,2013-02-05 16:13:00,
2013-02-05 09:29:00,44.2,25.8,29.95,NNW,337,3.8,-999.0,48,-99.99,,,0.00,Acu-Link.com,2013-02-05 16:29:00,
2013-02-05 09:44:00,45.5,25.4,29.95,NE,45,4.3,-999.0,45,-99.99,,,0.00,Acu-Link.com,2013-02-05 16:44:00,
2013-02-05 09:59:00,46.6,25.3,29.94,East,90,4.7,-999.0,43,-99.99,,,0.00,Acu-Link.com,2013-02-05 16:59:00,
2013-02-05 10:14:00,47.3,25.4,29.95,SE,135,3.1,-999.0,42,-99.99,,,0.00,Acu-Link.com,2013-02-05 17:14:00,
2013-02-05 10:29:00,48.0,25.5,29.95,South,180,3.1,-999.0,41,-99.99,,,0.00,Acu-Link.com,2013-02-05 17:29:00,
2013-02-05 10:45:00,50.9,25.6,29.94,NE,45,6.3,-999.0,37,-99.99,,,0.00,Acu-Link.com,2013-02-05 17:45:00,
2013-02-05 11:00:00,51.1,24.4,29.94,SW,225,3.8,-999.0,35,-99.99,,,0.00,Acu-Link.com,2013-02-05 18:00:00,
2013-02-05 11:15:00,53.8,25.4,29.93,ENE,67,5.1,-999.0,33,-99.99,,,0.00,Acu-Link.com,2013-02-05 18:15:00,
2013-02-05 11:31:00,54.5,25.3,29.92,ESE,112,9.8,-999.0,32,-99.99,,,0.00,Acu-Link.com,2013-02-05 18:31:00,
2013-02-05 11:46:00,55.2,24.3,29.92,ENE,67,5.1,-999.0,30,-99.99,,,0.00,Acu-Link.com,2013-02-05 18:46:00,
2013-02-05 12:01:00,55.8,24.0,29.91,East,90,4.7,-999.0,29,-99.99,,,0.00,Acu-Link.com,2013-02-05 19:01:00,
2013-02-05 12:16:00,55.9,23.3,29.89,SSW,202,1.6,-999.0,28,-99.99,,,0.00,Acu-Link.com,2013-02-05 19:16:00,
2013-02-05 12:31:00,57.0,23.4,29.88,West,270,5.1,-999.0,27,-99.99,,,0.00,Acu-Link.com,2013-02-05 19:31:00,
2013-02-05 12:47:00,56.3,23.6,29.88,ESE,112,5.8,-999.0,28,-99.99,,,0.00,Acu-Link.com,2013-02-05 19:47:00,
2013-02-05 13:02:00,56.8,23.2,29.87,NNE,22,3.1,-999.0,27,-99.99,,,0.00,Acu-Link.com,2013-02-05 20:02:00,
2013-02-05 13:17:00,57.7,20.2,29.86,ENE,67,2.7,-999.0,23,-99.99,,,0.00,Acu-Link.com,2013-02-05 20:17:00,
2013-02-05 13:33:00,59.4,20.5,29.86,North,0,6.7,-999.0,22,-99.99,,,0.00,Acu-Link.com,2013-02-05 20:33:00,
2013-02-05 13:48:00,58.8,20.1,29.85,NW,315,5.8,-999.0,22,-99.99,,,0.00,Acu-Link.com,2013-02-05 20:48:00,
2013-02-05 14:03:00,59.5,19.6,29.84,North,0,4.7,-999.0,21,-99.99,,,0.00,Acu-Link.com,2013-02-05 21:03:00,
2013-02-05 14:18:00,59.5,19.6,29.84,SSE,157,3.1,-999.0,21,-99.99,,,0.00,Acu-Link.com,2013-02-05 21:18:00,
2013-02-05 14:33:00,60.4,20.3,29.83,NE,45,4.3,-999.0,21,-99.99,,,0.00,Acu-Link.com,2013-02-05 21:33:00,
2013-02-05 14:49:00,59.9,19.9,29.83,ESE,112,3.8,-999.0,21,-99.99,,,0.00,Acu-Link.com,2013-02-05 21:49:00,
2013-02-05 15:04:00,60.1,20.0,29.82,South,180,2.2,-999.0,21,-99.99,,,0.00,Acu-Link.com,2013-02-05 22:04:00,
2013-02-05 15:19:00,60.3,20.2,29.82,West,270,4.3,-999.0,21,-99.99,,,0.00,Acu-Link.com,2013-02-05 22:19:00,
2013-02-05 15:34:00,60.4,20.3,29.82,WNW,292,3.1,-999.0,21,-99.99,,,0.00,Acu-Link.com,2013-02-05 22:34:00,
2013-02-05 15:49:00,60.3,20.2,29.82,WNW,292,3.1,-999.0,21,-99.99,,,0.00,Acu-Link.com,2013-02-05 22:49:00,
2013-02-05 16:05:00,60.6,20.5,29.81,ENE,67,0.0,-999.0,21,-99.99,,,0.00,Acu-Link.com,2013-02-05 23:05:00,
2013-02-05 16:20:00,59.9,19.9,29.81,South,180,1.6,-999.0,21,-99.99,,,0.00,Acu-Link.com,2013-02-05 23:20:00,
2013-02-05 16:35:00,62.4,20.8,29.82,West,270,3.1,-999.0,20,-99.99,,,0.00,Acu-Link.com,2013-02-05 23:35:00,
2013-02-05 16:50:00,61.2,20.9,29.81,NE,45,0.0,-999.0,21,-99.99,,,0.00,Acu-Link.com,2013-02-05 23:50:00,
2013-02-05 17:06:00,59.2,19.3,29.81,West,270,3.1,-999.0,21,-99.99,,,0.00,Acu-Link.com,2013-02-06 00:06:00,
2013-02-05 17:21:00,58.8,20.1,29.82,West,270,2.7,-999.0,22,-99.99,,,0.00,Acu-Link.com,2013-02-06 00:21:00,
2013-02-05 17:36:00,57.7,19.2,29.82,SW,225,1.1,-999.0,22,-99.99,,,0.00,Acu-Link.com,2013-02-06 00:36:00,
2013-02-05 17:51:00,55.6,19.4,29.81,South,180,0.0,-999.0,24,-99.99,,,0.00,Acu-Link.com,2013-02-06 00:51:00,
2013-02-05 18:06:00,53.6,18.6,29.82,SSW,202,0.0,-999.0,25,-99.99,,,0.00,Acu-Link.com,2013-02-06 01:06:00,
2013-02-05 18:22:00,52.2,19.2,29.81,South,180,0.0,-999.0,27,-99.99,,,0.00,Acu-Link.com,2013-02-06 01:22:00,
2013-02-05 18:37:00,51.4,19.4,29.82,South,180,0.0,-999.0,28,-99.99,,,0.00,Acu-Link.com,2013-02-06 01:37:00,
2013-02-05 18:52:00,49.3,19.2,29.83,West,270,2.2,-999.0,30,-99.99,,,0.00,Acu-Link.com,2013-02-06 01:52:00,
2013-02-05 19:07:00,49.1,19.0,29.83,West,270,0.0,-999.0,30,-99.99,,,0.00,Acu-Link.com,2013-02-06 02:07:00,
2013-02-05 19:22:00,47.7,19.3,29.83,SW,225,0.0,-999.0,32,-99.99,,,0.00,Acu-Link.com,2013-02-06 02:22:00,
2013-02-05 19:38:00,46.6,19.0,29.83,SW,225,2.7,-999.0,33,-99.99,,,0.00,Acu-Link.com,2013-02-06 02:38:00,
2013-02-05 19:53:00,45.5,19.5,29.83,WSW,247,0.0,-999.0,35,-99.99,,,0.00,Acu-Link.com,2013-02-06 02:53:00,
2013-02-05 20:08:00,44.2,19.6,29.83,West,270,0.0,-999.0,37,-99.99,,,0.00,Acu-Link.com,2013-02-06 03:08:00,
2013-02-05 20:23:00,42.8,19.0,29.83,West,270,0.0,-999.0,38,-99.99,,,0.00,Acu-Link.com,2013-02-06 03:23:00,
2013-02-05 20:38:00,42.3,18.5,29.83,West,270,2.2,-999.0,38,-99.99,,,0.00,Acu-Link.com,2013-02-06 03:38:00,
2013-02-05 20:54:00,42.6,18.8,29.83,NW,315,0.0,-999.0,38,-99.99,,,0.00,Acu-Link.com,2013-02-06 03:54:00,
2013-02-05 21:09:00,41.9,18.2,29.83,West,270,0.0,-999.0,38,-99.99,,,0.00,Acu-Link.com,2013-02-06 04:09:00,
2013-02-05 21:24:00,40.8,18.4,29.84,WSW,247,0.0,-999.0,40,-99.99,,,0.00,Acu-Link.com,2013-02-06 04:24:00,
2013-02-05 21:39:00,39.4,17.7,29.84,SSE,157,2.2,-999.0,41,-99.99,,,0.00,Acu-Link.com,2013-02-06 04:39:00,
2013-02-05 21:55:00,39.2,18.1,29.83,SW,225,0.0,-999.0,42,-99.99,,,0.00,Acu-Link.com,2013-02-06 04:55:00,
2013-02-05 22:10:00,37.9,17.5,29.83,West,270,0.0,-999.0,43,-99.99,,,0.00,Acu-Link.com,2013-02-06 05:10:00,
2013-02-05 22:25:00,36.5,17.7,29.83,WNW,292,0.0,-999.0,46,-99.99,,,0.00,Acu-Link.com,2013-02-06 05:25:00,
2013-02-05 22:40:00,36.5,18.7,29.84,ESE,112,1.6,-999.0,48,-99.99,,,0.00,Acu-Link.com,2013-02-06 05:40:00,
2013-02-05 22:55:00,37.2,18.4,29.84,NNW,337,0.0,-999.0,46,-99.99,,,0.00,Acu-Link.com,2013-02-06 05:55:00,
2013-02-05 23:11:00,36.3,18.0,29.84,NE,45,0.0,-999.0,47,-99.99,,,0.00,Acu-Link.com,2013-02-06 06:11:00,
2013-02-05 23:26:00,35.1,17.9,29.85,WNW,292,1.1,-999.0,49,-99.99,,,0.00,Acu-Link.com,2013-02-06 06:26:00,
2013-02-05 23:41:00,34.7,18.0,29.85,WSW,247,0.0,-999.0,50,-99.99,,,0.00,Acu-Link.com,2013-02-06 06:41:00,
2013-02-05 23:56:00,34.7,18.0,29.84,WNW,292,0.0,-999.0,50,-99.99,,,0.00,Acu-Link.com,2013-02-06 06:56:00,